sensor_id;sensor_type;location;lat;lon;timestamp;pressure;altitude;pressure_sealevel;temperature;humidity
51249;BME280;39642;47.556;18.728;2023-01-25T00:02:02;101120.94;;;21.09;36.61
51249;BME280;39642;47.556;18.728;2023-01-25T00:04:28;101121.81;;;21.10;36.67
51249;BME280;39642;47.556;18.728;2023-01-25T00:06:54;101120.09;;;21.09;36.68
51249;BME280;39642;47.556;18.728;2023-01-25T00:09:21;101127.16;;;21.08;36.67
51249;BME280;39642;47.556;18.728;2023-01-25T00:11:46;101125.37;;;21.09;36.63
51249;BME280;39642;47.556;18.728;2023-01-25T00:14:13;101132.47;;;21.08;36.57
51249;BME280;39642;47.556;18.728;2023-01-25T00:16:40;101136.03;;;21.07;36.59
51249;BME280;39642;47.556;18.728;2023-01-25T00:19:06;101140.47;;;21.07;36.57
51249;BME280;39642;47.556;18.728;2023-01-25T00:21:33;101139.59;;;21.06;36.51
51249;BME280;39642;47.556;18.728;2023-01-25T00:24:00;101136.09;;;21.06;36.55
51249;BME280;39642;47.556;18.728;2023-01-25T00:26:29;101144.03;;;21.06;36.55
51249;BME280;39642;47.556;18.728;2023-01-25T00:28:55;101144.09;;;21.04;36.48
51249;BME280;39642;47.556;18.728;2023-01-25T00:31:31;101142.31;;;21.05;36.50
51249;BME280;39642;47.556;18.728;2023-01-25T00:39:02;101150.38;;;21.02;36.60
51249;BME280;39642;47.556;18.728;2023-01-25T00:41:28;101149.44;;;21.03;36.71
51249;BME280;39642;47.556;18.728;2023-01-25T00:43:55;101152.09;;;21.03;36.59
51249;BME280;39642;47.556;18.728;2023-01-25T00:46:21;101145.94;;;21.02;36.49
51249;BME280;39642;47.556;18.728;2023-01-25T00:48:47;101148.59;;;21.02;36.50
51249;BME280;39642;47.556;18.728;2023-01-25T00:51:13;101149.44;;;21.03;36.49
51249;BME280;39642;47.556;18.728;2023-01-25T00:53:40;101152.97;;;21.03;36.45
51249;BME280;39642;47.556;18.728;2023-01-25T00:56:07;101152.03;;;21.04;36.48
51249;BME280;39642;47.556;18.728;2023-01-25T00:58:32;101150.34;;;21.03;36.29
51249;BME280;39642;47.556;18.728;2023-01-25T01:00:58;101155.53;;;21.05;36.30
51249;BME280;39642;47.556;18.728;2023-01-25T01:03:24;101151.09;;;21.05;36.19
51249;BME280;39642;47.556;18.728;2023-01-25T01:06:11;101157.22;;;21.07;36.16
51249;BME280;39642;47.556;18.728;2023-01-25T01:08:41;101154.56;;;21.07;36.01
51249;BME280;39642;47.556;18.728;2023-01-25T01:11:09;101159.84;;;21.07;36.01
51249;BME280;39642;47.556;18.728;2023-01-25T01:13:35;101154.56;;;21.07;35.96
51249;BME280;39642;47.556;18.728;2023-01-25T01:16:04;101151.87;;;21.09;36.02
51249;BME280;39642;47.556;18.728;2023-01-25T01:18:34;101146.56;;;21.09;35.98
51249;BME280;39642;47.556;18.728;2023-01-25T01:21:01;101147.41;;;21.09;35.82
51249;BME280;39642;47.556;18.728;2023-01-25T01:23:28;101147.41;;;21.09;35.85
51249;BME280;39642;47.556;18.728;2023-01-25T01:25:54;101144.78;;;21.09;35.77
51249;BME280;39642;47.556;18.728;2023-01-25T01:28:20;101159.75;;;21.10;35.83
51249;BME280;39642;47.556;18.728;2023-01-25T01:30:46;101158.91;;;21.10;35.92
51249;BME280;39642;47.556;18.728;2023-01-25T01:33:11;101158.00;;;21.09;35.73
51249;BME280;39642;47.556;18.728;2023-01-25T01:35:37;101154.47;;;21.10;35.86
51249;BME280;39642;47.556;18.728;2023-01-25T01:38:03;101157.16;;;21.09;35.91
51249;BME280;39642;47.556;18.728;2023-01-25T01:40:29;101158.00;;;21.09;35.95
51249;BME280;39642;47.556;18.728;2023-01-25T01:43:04;101159.81;;;21.09;35.70
51249;BME280;39642;47.556;18.728;2023-01-25T01:46:03;101158.09;;;21.08;35.88
51249;BME280;39642;47.556;18.728;2023-01-25T01:48:53;101152.81;;;21.08;35.91
51249;BME280;39642;47.556;18.728;2023-01-25T01:53:56;101154.66;;;21.06;35.89
51249;BME280;39642;47.556;18.728;2023-01-25T01:56:29;101156.41;;;21.05;35.82
51249;BME280;39642;47.556;18.728;2023-01-25T01:58:57;101156.41;;;21.05;35.88
51249;BME280;39642;47.556;18.728;2023-01-25T02:01:24;101152.91;;;21.05;35.90
51249;BME280;39642;47.556;18.728;2023-01-25T02:03:50;101149.41;;;21.04;36.01
51249;BME280;39642;47.556;18.728;2023-01-25T02:06:26;101142.37;;;21.03;35.87
51249;BME280;39642;47.556;18.728;2023-01-25T02:08:53;101145.03;;;21.03;35.94
51249;BME280;39642;47.556;18.728;2023-01-25T02:11:20;101143.28;;;21.02;35.84
51249;BME280;39642;47.556;18.728;2023-01-25T02:13:47;101138.84;;;21.03;35.78
51249;BME280;39642;47.556;18.728;2023-01-25T02:16:15;101145.03;;;21.03;35.83
51249;BME280;39642;47.556;18.728;2023-01-25T02:18:42;101147.69;;;21.03;35.60
51249;BME280;39642;47.556;18.728;2023-01-25T02:21:08;101145.03;;;21.03;35.51
51249;BME280;39642;47.556;18.728;2023-01-25T02:24:08;101145.03;;;21.03;35.54
51249;BME280;39642;47.556;18.728;2023-01-25T02:26:37;101145.87;;;21.04;35.61
51249;BME280;39642;47.556;18.728;2023-01-25T02:29:05;101152.03;;;21.04;35.63
51249;BME280;39642;47.556;18.728;2023-01-25T02:31:32;101149.34;;;21.06;35.51
51249;BME280;39642;47.556;18.728;2023-01-25T02:33:58;101142.25;;;21.06;35.50
51249;BME280;39642;47.556;18.728;2023-01-25T02:36:33;101137.81;;;21.07;35.42
51249;BME280;39642;47.556;18.728;2023-01-25T02:39:02;101140.41;;;21.08;35.49
51249;BME280;39642;47.556;18.728;2023-01-25T02:44:03;101138.63;;;21.09;35.34
51249;BME280;39642;47.556;18.728;2023-01-25T02:46:35;101133.28;;;21.10;35.27
51249;BME280;39642;47.556;18.728;2023-01-25T02:49:02;101120.94;;;21.09;35.34
51249;BME280;39642;47.556;18.728;2023-01-25T02:51:31;101121.81;;;21.10;35.23
51249;BME280;39642;47.556;18.728;2023-01-25T02:53:57;101111.16;;;21.11;35.38
51249;BME280;39642;47.556;18.728;2023-01-25T02:56:24;101111.16;;;21.11;35.12
51249;BME280;39642;47.556;18.728;2023-01-25T02:58:50;101108.50;;;21.11;35.18
51249;BME280;39642;47.556;18.728;2023-01-25T03:01:16;101108.50;;;21.11;35.27
51249;BME280;39642;47.556;18.728;2023-01-25T03:03:42;101116.44;;;21.11;35.23
51249;BME280;39642;47.556;18.728;2023-01-25T03:06:08;101105.00;;;21.11;35.09
51249;BME280;39642;47.556;18.728;2023-01-25T03:08:34;101107.59;;;21.12;35.04
51249;BME280;39642;47.556;18.728;2023-01-25T03:11:02;101107.66;;;21.11;35.06
51249;BME280;39642;47.556;18.728;2023-01-25T03:13:29;101112.94;;;21.11;35.23
51249;BME280;39642;47.556;18.728;2023-01-25T03:16:00;101107.66;;;21.11;35.21
51249;BME280;39642;47.556;18.728;2023-01-25T03:18:27;101105.94;;;21.10;35.16
51249;BME280;39642;47.556;18.728;2023-01-25T03:20:53;101100.69;;;21.08;35.04
51249;BME280;39642;47.556;18.728;2023-01-25T03:23:19;101094.44;;;21.09;35.22
51249;BME280;39642;47.556;18.728;2023-01-25T03:25:45;101101.59;;;21.07;35.14
51249;BME280;39642;47.556;18.728;2023-01-25T03:28:12;101091.00;;;21.07;35.35
51249;BME280;39642;47.556;18.728;2023-01-25T03:30:37;101097.19;;;21.08;35.39
51249;BME280;39642;47.556;18.728;2023-01-25T03:33:03;101089.28;;;21.06;35.21
51249;BME280;39642;47.556;18.728;2023-01-25T03:35:29;101102.53;;;21.06;35.42
51249;BME280;39642;47.556;18.728;2023-01-25T03:37:55;101104.31;;;21.06;35.38
51249;BME280;39642;47.556;18.728;2023-01-25T03:40:21;101098.13;;;21.05;35.40
51249;BME280;39642;47.556;18.728;2023-01-25T03:42:47;101098.13;;;21.05;35.29
51249;BME280;39642;47.556;18.728;2023-01-25T03:45:13;101109.62;;;21.06;35.35
51249;BME280;39642;47.556;18.728;2023-01-25T03:47:40;101105.22;;;21.05;35.27
51249;BME280;39642;47.556;18.728;2023-01-25T03:50:06;101099.94;;;21.05;35.19
51249;BME280;39642;47.556;18.728;2023-01-25T03:52:32;101098.13;;;21.05;35.00
51249;BME280;39642;47.556;18.728;2023-01-25T03:55:05;101105.19;;;21.06;34.72
51249;BME280;39642;47.556;18.728;2023-01-25T03:57:31;101099.03;;;21.06;34.89
51249;BME280;39642;47.556;18.728;2023-01-25T03:59:57;101101.69;;;21.06;34.64
51249;BME280;39642;47.556;18.728;2023-01-25T04:02:23;101094.59;;;21.06;34.52
51249;BME280;39642;47.556;18.728;2023-01-25T04:04:49;101096.28;;;21.07;34.75
51249;BME280;39642;47.556;18.728;2023-01-25T04:07:15;101091.00;;;21.07;33.87
51249;BME280;39642;47.556;18.728;2023-01-25T04:09:41;101092.75;;;21.08;33.80
51249;BME280;39642;47.556;18.728;2023-01-25T04:12:07;101086.59;;;21.08;34.63
51249;BME280;39642;47.556;18.728;2023-01-25T04:14:32;101084.75;;;21.10;34.53
51249;BME280;39642;47.556;18.728;2023-01-25T04:16:58;101082.94;;;21.10;34.37
51249;BME280;39642;47.556;18.728;2023-01-25T04:19:24;101089.97;;;21.11;34.78
51249;BME280;39642;47.556;18.728;2023-01-25T04:21:50;101089.97;;;21.11;34.16
51249;BME280;39642;47.556;18.728;2023-01-25T04:24:16;101095.19;;;21.13;34.76
51249;BME280;39642;47.556;18.728;2023-01-25T04:26:42;101094.34;;;21.12;34.44
51249;BME280;39642;47.556;18.728;2023-01-25T04:29:09;101092.56;;;21.13;34.46
51249;BME280;39642;47.556;18.728;2023-01-25T04:31:35;101095.19;;;21.13;34.67
51249;BME280;39642;47.556;18.728;2023-01-25T04:34:01;101080.16;;;21.13;34.20
51249;BME280;39642;47.556;18.728;2023-01-25T04:36:26;101079.31;;;21.13;34.42
51249;BME280;39642;47.556;18.728;2023-01-25T04:38:52;101079.31;;;21.13;34.56
51249;BME280;39642;47.556;18.728;2023-01-25T04:41:18;101087.25;;;21.13;34.48
51249;BME280;39642;47.556;18.728;2023-01-25T04:43:44;101081.03;;;21.14;34.58
51249;BME280;39642;47.556;18.728;2023-01-25T04:46:10;101085.47;;;21.13;34.44
51249;BME280;39642;47.556;18.728;2023-01-25T04:48:36;101084.59;;;21.13;34.36
51249;BME280;39642;47.556;18.728;2023-01-25T04:51:02;101076.72;;;21.11;34.53
51249;BME280;39642;47.556;18.728;2023-01-25T04:53:28;101077.56;;;21.12;34.73
51249;BME280;39642;47.556;18.728;2023-01-25T04:55:54;101076.72;;;21.11;34.59
51249;BME280;39642;47.556;18.728;2023-01-25T04:58:19;101073.22;;;21.11;34.60
51249;BME280;39642;47.556;18.728;2023-01-25T05:00:46;101075.00;;;21.10;34.67
51249;BME280;39642;47.556;18.728;2023-01-25T05:03:12;101071.50;;;21.10;34.59
51249;BME280;39642;47.556;18.728;2023-01-25T05:05:38;101064.47;;;21.09;34.65
51249;BME280;39642;47.556;18.728;2023-01-25T05:08:04;101068.06;;;21.08;34.71
51249;BME280;39642;47.556;18.728;2023-01-25T05:10:30;101071.56;;;21.08;34.61
51249;BME280;39642;47.556;18.728;2023-01-25T05:12:56;101073.25;;;21.09;34.66
51249;BME280;39642;47.556;18.728;2023-01-25T05:15:21;101082.16;;;21.08;34.44
51249;BME280;39642;47.556;18.728;2023-01-25T05:17:47;101083.06;;;21.07;34.47
51249;BME280;39642;47.556;18.728;2023-01-25T05:20:13;101085.69;;;21.07;34.45
51249;BME280;39642;47.556;18.728;2023-01-25T05:22:39;101085.69;;;21.07;34.30
51249;BME280;39642;47.556;18.728;2023-01-25T05:25:05;101093.66;;;21.07;34.30
51249;BME280;39642;47.556;18.728;2023-01-25T05:27:51;101094.59;;;21.06;34.12
51249;BME280;39642;47.556;18.728;2023-01-25T05:30:17;101106.03;;;21.07;33.51
51249;BME280;39642;47.556;18.728;2023-01-25T05:32:43;101102.53;;;21.06;33.95
51249;BME280;39642;47.556;18.728;2023-01-25T05:35:09;101097.22;;;21.06;34.08
51249;BME280;39642;47.556;18.728;2023-01-25T05:37:34;101107.81;;;21.06;34.20
51249;BME280;39642;47.556;18.728;2023-01-25T05:40:00;101105.19;;;21.06;33.95
51249;BME280;39642;47.556;18.728;2023-01-25T05:42:26;101106.03;;;21.07;33.56
51249;BME280;39642;47.556;18.728;2023-01-25T05:44:52;101107.81;;;21.06;33.18
51249;BME280;39642;47.556;18.728;2023-01-25T05:47:19;101105.19;;;21.06;33.01
51249;BME280;39642;47.556;18.728;2023-01-25T05:49:45;101107.81;;;21.06;32.37
51249;BME280;39642;47.556;18.728;2023-01-25T05:52:13;101099.88;;;21.06;32.19
51249;BME280;39642;47.556;18.728;2023-01-25T05:54:39;101098.09;;;21.07;32.03
51249;BME280;39642;47.556;18.728;2023-01-25T05:57:05;101105.97;;;21.08;33.01
51249;BME280;39642;47.556;18.728;2023-01-25T05:59:31;101103.34;;;21.08;32.57
51249;BME280;39642;47.556;18.728;2023-01-25T06:01:56;101105.13;;;21.08;33.38
51249;BME280;39642;47.556;18.728;2023-01-25T06:04:22;101105.03;;;21.09;32.98
51249;BME280;39642;47.556;18.728;2023-01-25T06:06:48;101101.53;;;21.09;33.21
51249;BME280;39642;47.556;18.728;2023-01-25T06:09:14;101105.03;;;21.09;34.59
51249;BME280;39642;47.556;18.728;2023-01-25T06:11:43;101113.78;;;21.11;34.39
51249;BME280;39642;47.556;18.728;2023-01-25T06:14:10;101105.84;;;21.11;34.49
51249;BME280;39642;47.556;18.728;2023-01-25T06:16:36;101114.59;;;21.13;33.63
51249;BME280;39642;47.556;18.728;2023-01-25T06:19:04;101119.91;;;21.13;34.37
51249;BME280;39642;47.556;18.728;2023-01-25T06:21:31;101118.09;;;21.14;34.28
51249;BME280;39642;47.556;18.728;2023-01-25T06:23:57;101117.25;;;21.13;34.75
51249;BME280;39642;47.556;18.728;2023-01-25T06:26:23;101109.25;;;21.15;34.60
51249;BME280;39642;47.556;18.728;2023-01-25T06:28:49;101118.84;;;21.17;34.94
51249;BME280;39642;47.556;18.728;2023-01-25T06:31:16;101119.66;;;21.19;35.33
51249;BME280;39642;47.556;18.728;2023-01-25T06:33:45;101132.78;;;21.23;35.70
51249;BME280;39642;47.556;18.728;2023-01-25T06:36:13;101123.16;;;21.20;35.12
51249;BME280;39642;47.556;18.728;2023-01-25T06:38:40;101125.75;;;21.21;34.98
51249;BME280;39642;47.556;18.728;2023-01-25T06:41:09;101123.09;;;21.21;34.11
51249;BME280;39642;47.556;18.728;2023-01-25T06:43:36;101121.31;;;21.22;34.33
51249;BME280;39642;47.556;18.728;2023-01-25T06:46:04;101130.25;;;21.19;34.02
51249;BME280;39642;47.556;18.728;2023-01-25T06:48:31;101126.81;;;21.17;33.66
51249;BME280;39642;47.556;18.728;2023-01-25T06:51:05;101126.13;;;21.12;33.12
51249;BME280;39642;47.556;18.728;2023-01-25T06:53:33;101119.22;;;21.08;33.57
51249;BME280;39642;47.556;18.728;2023-01-25T06:56:02;101116.69;;;21.05;31.84
51249;BME280;39642;47.556;18.728;2023-01-25T06:58:29;101122.06;;;21.04;33.34
51249;BME280;39642;47.556;18.728;2023-01-25T07:03:28;101122.06;;;21.04;31.65
51249;BME280;39642;47.556;18.728;2023-01-25T07:06:12;101121.19;;;21.03;32.53
51249;BME280;39642;47.556;18.728;2023-01-25T07:08:38;101119.47;;;21.02;31.90
51249;BME280;39642;47.556;18.728;2023-01-25T07:11:06;101117.75;;;21.01;31.21
51249;BME280;39642;47.556;18.728;2023-01-25T07:13:34;101113.31;;;21.02;31.48
51249;BME280;39642;47.556;18.728;2023-01-25T07:16:03;101123.78;;;21.05;31.18
51249;BME280;39642;47.556;18.728;2023-01-25T07:18:30;101114.91;;;21.06;31.37
51249;BME280;39642;47.556;18.728;2023-01-25T07:21:08;101108.63;;;21.08;31.26
51249;BME280;39642;47.556;18.728;2023-01-25T07:23:35;101106.78;;;21.10;31.43
51249;BME280;39642;47.556;18.728;2023-01-25T07:26:02;101106.69;;;21.12;31.43
51249;BME280;39642;47.556;18.728;2023-01-25T07:28:30;101101.34;;;21.13;31.15
51249;BME280;39642;47.556;18.728;2023-01-25T07:31:03;101096.91;;;21.14;32.26
51249;BME280;39642;47.556;18.728;2023-01-25T07:33:31;101110.09;;;21.15;31.35
51249;BME280;39642;47.556;18.728;2023-01-25T07:36:01;101106.50;;;21.16;31.42
51249;BME280;39642;47.556;18.728;2023-01-25T07:38:27;101106.47;;;21.18;31.27
51249;BME280;39642;47.556;18.728;2023-01-25T07:40:53;101101.13;;;21.19;31.32
51249;BME280;39642;47.556;18.728;2023-01-25T07:43:19;101106.28;;;21.23;31.30
51249;BME280;39642;47.556;18.728;2023-01-25T07:45:45;101105.38;;;21.24;31.47
51249;BME280;39642;47.556;18.728;2023-01-25T07:48:15;101106.16;;;21.26;31.53
51249;BME280;39642;47.556;18.728;2023-01-25T07:50:42;101111.34;;;21.29;32.18
51249;BME280;39642;47.556;18.728;2023-01-25T07:53:19;101109.34;;;21.34;32.63
51249;BME280;39642;47.556;18.728;2023-01-25T07:55:45;101110.28;;;21.33;32.46
51249;BME280;39642;47.556;18.728;2023-01-25T07:58:11;101107.69;;;21.31;32.30
51249;BME280;39642;47.556;18.728;2023-01-25T08:00:37;101115.59;;;21.33;33.16
51249;BME280;39642;47.556;18.728;2023-01-25T08:03:03;101116.50;;;21.32;34.15
51249;BME280;39642;47.556;18.728;2023-01-25T08:20:35;101111.91;;;22.00;32.55
51249;BME280;39642;47.556;18.728;2023-01-25T08:23:02;101111.91;;;22.00;32.55
51249;BME280;39642;47.556;18.728;2023-01-25T08:25:28;101115.97;;;21.46;33.25
51249;BME280;39642;47.556;18.728;2023-01-25T08:27:54;101111.59;;;21.45;33.79
51249;BME280;39642;47.556;18.728;2023-01-25T08:30:20;101111.53;;;21.46;34.13
51249;BME280;39642;47.556;18.728;2023-01-25T08:32:45;101112.34;;;21.48;35.05
51249;BME280;39642;47.556;18.728;2023-01-25T08:35:11;101110.56;;;21.49;35.01
51249;BME280;39642;47.556;18.728;2023-01-25T08:37:37;101111.34;;;21.51;35.72
51249;BME280;39642;47.556;18.728;2023-01-25T08:40:04;101111.22;;;21.54;36.01
51249;BME280;39642;47.556;18.728;2023-01-25T08:42:32;101109.41;;;21.54;35.70
51249;BME280;39642;47.556;18.728;2023-01-25T08:44:58;101103.31;;;21.52;36.71
51249;BME280;39642;47.556;18.728;2023-01-25T08:47:24;101100.94;;;21.46;36.99
51249;BME280;39642;47.556;18.728;2023-01-25T08:49:51;101101.06;;;21.43;36.83
51249;BME280;39642;47.556;18.728;2023-01-25T08:52:17;101091.56;;;21.37;36.75
51249;BME280;39642;47.556;18.728;2023-01-25T08:54:42;101089.81;;;21.36;37.18
51249;BME280;39642;47.556;18.728;2023-01-25T08:57:09;101092.34;;;21.39;36.91
51249;BME280;39642;47.556;18.728;2023-01-25T08:59:35;101087.75;;;21.45;36.96
51249;BME280;39642;47.556;18.728;2023-01-25T09:02:00;101088.59;;;21.45;36.75
51249;BME280;39642;47.556;18.728;2023-01-25T09:04:35;101083.31;;;21.45;36.76
51249;BME280;39642;47.556;18.728;2023-01-25T09:48:35;101073.66;;;21.44;37.12
51249;BME280;39642;47.556;18.728;2023-01-25T09:51:24;101068.56;;;21.38;36.75
51249;BME280;39642;47.556;18.728;2023-01-25T09:53:52;101061.81;;;21.31;36.21
51249;BME280;39642;47.556;18.728;2023-01-25T09:56:24;101057.87;;;21.19;36.56
51249;BME280;39642;47.556;18.728;2023-01-25T09:58:57;101062.44;;;21.15;36.31
51249;BME280;39642;47.556;18.728;2023-01-25T10:01:37;101057.00;;;21.18;36.21
51249;BME280;39642;47.556;18.728;2023-01-25T10:06:39;101050.66;;;21.23;36.49
51249;BME280;39642;47.556;18.728;2023-01-25T10:11:53;101038.88;;;21.30;36.45
51249;BME280;39642;47.556;18.728;2023-01-25T10:14:19;101036.16;;;21.31;35.17
51249;BME280;39642;47.556;18.728;2023-01-25T10:21:54;101020.94;;;21.36;35.15
51249;BME280;39642;47.556;18.728;2023-01-25T10:24:57;101017.28;;;21.39;35.25
51249;BME280;39642;47.556;18.728;2023-01-25T10:29:52;101017.25;;;21.40;34.71
51249;BME280;39642;47.556;18.728;2023-01-25T10:32:28;101010.09;;;21.42;35.01
51249;BME280;39642;47.556;18.728;2023-01-25T10:35:19;101000.44;;;21.41;33.91
51249;BME280;39642;47.556;18.728;2023-01-25T10:37:46;100999.56;;;21.41;33.89
51249;BME280;39642;47.556;18.728;2023-01-25T10:40:16;100993.34;;;21.42;33.51
51249;BME280;39642;47.556;18.728;2023-01-25T10:42:53;100997.72;;;21.43;33.30
51249;BME280;39642;47.556;18.728;2023-01-25T10:45:19;100993.22;;;21.45;33.49
51249;BME280;39642;47.556;18.728;2023-01-25T10:47:54;100985.25;;;21.45;34.74
51249;BME280;39642;47.556;18.728;2023-01-25T10:53:03;100985.41;;;21.42;35.76
51249;BME280;39642;47.556;18.728;2023-01-25T10:55:29;100990.66;;;21.44;35.40
51249;BME280;39642;47.556;18.728;2023-01-25T10:57:56;100974.38;;;21.31;35.58
51249;BME280;39642;47.556;18.728;2023-01-25T11:00:23;100985.97;;;21.28;34.56
51249;BME280;39642;47.556;18.728;2023-01-25T11:02:52;100983.38;;;21.27;35.62
51249;BME280;39642;47.556;18.728;2023-01-25T11:05:32;100975.47;;;21.25;36.22
51249;BME280;39642;47.556;18.728;2023-01-25T11:10:41;100972.13;;;21.21;37.48
51249;BME280;39642;47.556;18.728;2023-01-25T11:15:42;100953.69;;;21.18;37.21
51249;BME280;39642;47.556;18.728;2023-01-25T11:18:17;100952.00;;;21.17;37.65
51249;BME280;39642;47.556;18.728;2023-01-25T11:20:43;100956.34;;;21.18;37.35
51249;BME280;39642;47.556;18.728;2023-01-25T11:23:24;100944.03;;;21.17;37.19
51249;BME280;39642;47.556;18.728;2023-01-25T11:25:51;100950.25;;;21.16;37.07
51249;BME280;39642;47.556;18.728;2023-01-25T11:28:20;100934.31;;;21.18;36.63
51249;BME280;39642;47.556;18.728;2023-01-25T11:30:48;100938.59;;;21.20;36.36
51249;BME280;39642;47.556;18.728;2023-01-25T11:33:16;100943.00;;;21.21;36.27
51249;BME280;39642;47.556;18.728;2023-01-25T11:35:56;100934.94;;;21.23;36.15
51249;BME280;39642;47.556;18.728;2023-01-25T11:38:26;100926.09;;;21.24;35.46
51249;BME280;39642;47.556;18.728;2023-01-25T11:43:40;100917.16;;;21.27;36.35
51249;BME280;39642;47.556;18.728;2023-01-25T11:57:53;100875.72;;;21.46;37.27
51249;BME280;39642;47.556;18.728;2023-01-25T12:05:36;100859.72;;;21.48;37.47
51249;BME280;39642;47.556;18.728;2023-01-25T12:08:37;100859.81;;;21.46;37.84
51249;BME280;39642;47.556;18.728;2023-01-25T12:24:32;100831.06;;;21.37;39.04
51249;BME280;39642;47.556;18.728;2023-01-25T12:29:51;100830.09;;;21.38;39.32
51249;BME280;39642;47.556;18.728;2023-01-25T12:32:25;100831.06;;;21.37;38.86
51249;BME280;39642;47.556;18.728;2023-01-25T12:35:29;100831.91;;;21.37;39.29
51249;BME280;39642;47.556;18.728;2023-01-25T12:38:38;100815.28;;;21.34;38.66
51249;BME280;39642;47.556;18.728;2023-01-25T12:41:01;100823.84;;;21.39;39.52
51249;BME280;39642;47.556;18.728;2023-01-25T12:43:45;100824.22;;;21.31;38.06
51249;BME280;39642;47.556;18.728;2023-01-25T12:46:22;100822.56;;;21.29;39.23
51249;BME280;39642;47.556;18.728;2023-01-25T12:48:51;100824.38;;;21.28;38.72
51249;BME280;39642;47.556;18.728;2023-01-25T12:51:21;100820.84;;;21.28;38.61
51249;BME280;39642;47.556;18.728;2023-01-25T12:53:51;100822.56;;;21.29;38.72
51249;BME280;39642;47.556;18.728;2023-01-25T12:56:41;100817.22;;;21.30;38.51
51249;BME280;39642;47.556;18.728;2023-01-25T13:01:45;100803.88;;;21.32;38.60
51249;BME280;39642;47.556;18.728;2023-01-25T13:07:16;100804.03;;;21.29;37.76
51249;BME280;39642;47.556;18.728;2023-01-25T13:12:54;100797.31;;;21.21;39.01
51249;BME280;39642;47.556;18.728;2023-01-25T13:15:35;100804.25;;;21.24;38.15
51249;BME280;39642;47.556;18.728;2023-01-25T13:20:55;100800.59;;;21.27;39.44
51249;BME280;39642;47.556;18.728;2023-01-25T13:23:36;100797.09;;;21.26;38.93
51249;BME280;39642;47.556;18.728;2023-01-25T13:28:47;100790.16;;;21.24;38.40
51249;BME280;39642;47.556;18.728;2023-01-25T13:34:12;100784.62;;;21.28;37.94
51249;BME280;39642;47.556;18.728;2023-01-25T13:42:00;100781.84;;;21.31;37.99
51249;BME280;39642;47.556;18.728;2023-01-25T13:44:28;100776.47;;;21.33;37.91
51249;BME280;39642;47.556;18.728;2023-01-25T13:46:56;100777.34;;;21.33;37.70
51249;BME280;39642;47.556;18.728;2023-01-25T13:49:29;100774.53;;;21.36;37.27
51249;BME280;39642;47.556;18.728;2023-01-25T13:51:58;100772.81;;;21.35;37.15
51249;BME280;39642;47.556;18.728;2023-01-25T13:54:23;100767.59;;;21.34;37.32
51249;BME280;39642;47.556;18.728;2023-01-25T13:57:05;100772.87;;;21.34;37.32
51249;BME280;39642;47.556;18.728;2023-01-25T13:59:31;100768.38;;;21.36;37.50
51249;BME280;39642;47.556;18.728;2023-01-25T14:01:58;100766.66;;;21.35;37.35
51249;BME280;39642;47.556;18.728;2023-01-25T14:04:26;100766.59;;;21.36;37.54
51249;BME280;39642;47.556;18.728;2023-01-25T14:06:57;100771.81;;;21.38;38.39
51249;BME280;39642;47.556;18.728;2023-01-25T14:09:24;100768.13;;;21.42;39.32
51249;BME280;39642;47.556;18.728;2023-01-25T14:12:00;100762.56;;;21.48;39.43
51249;BME280;39642;47.556;18.728;2023-01-25T14:14:32;100768.50;;;21.53;39.87
51249;BME280;39642;47.556;18.728;2023-01-25T14:17:18;100767.69;;;21.51;38.61
51249;BME280;39642;47.556;18.728;2023-01-25T14:19:47;100767.84;;;21.48;39.08
51249;BME280;39642;47.556;18.728;2023-01-25T14:25:17;100772.44;;;21.45;39.19
51249;BME280;39642;47.556;18.728;2023-01-25T14:27:49;100760.97;;;21.44;38.15
51249;BME280;39642;47.556;18.728;2023-01-25T14:30:22;100766.34;;;21.42;38.98
51249;BME280;39642;47.556;18.728;2023-01-25T14:32:50;100757.53;;;21.42;39.38
51249;BME280;39642;47.556;18.728;2023-01-25T14:37:55;100750.44;;;21.42;40.52
51249;BME280;39642;47.556;18.728;2023-01-25T14:40:23;100749.59;;;21.42;40.58
51249;BME280;39642;47.556;18.728;2023-01-25T14:42:51;100748.75;;;21.40;40.13
51249;BME280;39642;47.556;18.728;2023-01-25T14:45:19;100740.03;;;21.38;40.00
51249;BME280;39642;47.556;18.728;2023-01-25T14:47:49;100750.56;;;21.39;39.75
51249;BME280;39642;47.556;18.728;2023-01-25T14:52:56;100748.91;;;21.37;40.10
51249;BME280;39642;47.556;18.728;2023-01-25T14:55:23;100740.09;;;21.36;40.10
51249;BME280;39642;47.556;18.728;2023-01-25T14:57:51;100741.72;;;21.39;40.08
51249;BME280;39642;47.556;18.728;2023-01-25T15:00:20;100738.13;;;21.41;40.09
51249;BME280;39642;47.556;18.728;2023-01-25T15:02:50;100739.06;;;21.40;37.66
51249;BME280;39642;47.556;18.728;2023-01-25T15:05:31;100730.97;;;21.44;38.84
51249;BME280;39642;47.556;18.728;2023-01-25T15:10:35;100727.22;;;21.48;37.79
51249;BME280;39642;47.556;18.728;2023-01-25T15:15:30;100741.03;;;21.54;38.42
51249;BME280;39642;47.556;18.728;2023-01-25T15:17:57;100733.97;;;21.55;39.01
51249;BME280;39642;47.556;18.728;2023-01-25T15:22:52;100731.38;;;21.53;38.69
51249;BME280;39642;47.556;18.728;2023-01-25T15:25:18;100736.69;;;21.53;39.52
51249;BME280;39642;47.556;18.728;2023-01-25T15:27:44;100743.69;;;21.54;40.48
51249;BME280;39642;47.556;18.728;2023-01-25T15:30:13;100740.03;;;21.57;40.90
51249;BME280;39642;47.556;18.728;2023-01-25T15:32:40;100741.03;;;21.54;43.06
51249;BME280;39642;47.556;18.728;2023-01-25T15:35:13;100742.13;;;21.50;43.04